Time;durP1;ratioP1;P1;durP2;ratioP2;P2;SDS_P1;SDS_P2;PMS_P1;PMS_P2;Temp;Humidity;BMP_temperature;BMP_pressure;BME280_temperature;BME280_humidity;BME280_pressure;Samples;Min_cycle;Max_cycle;Signal;HPM_P1;HPM_P2
2021/10/07 00:01:40;;;;;;;9.45;7.22;;;7.30;99.90;;;;;;5092308;28;20051;-44
2021/10/07 00:04:06;;;;;;;9.57;7.65;;;7.30;99.90;;;;;;5074443;28;20067;-44
2021/10/07 00:06:37;;;;;;;11.05;8.52;;;7.30;99.90;;;;;;5090368;28;20054;-47
2021/10/07 00:09:06;;;;;;;9.40;7.82;;;7.30;99.90;;;;;;5072306;28;20052;-44
2021/10/07 00:11:33;;;;;;;13.15;8.23;;;7.20;99.90;;;;;;5102224;28;20176;-46
2021/10/07 00:13:59;;;;;;;9.80;8.05;;;7.20;99.90;;;;;;5110721;28;20051;-44
2021/10/07 00:16:25;;;;;;;10.07;8.10;;;7.20;99.90;;;;;;5110567;28;20369;-44
2021/10/07 00:18:52;;;;;;;9.75;8.18;;;7.30;99.90;;;;;;5110863;28;20166;-44
2021/10/07 00:21:19;;;;;;;10.90;8.07;;;7.30;99.90;;;;;;5101802;28;20066;-48
2021/10/07 00:24:01;;;;;;;10.85;8.27;;;7.30;99.90;;;;;;5110854;28;20089;-46
2021/10/07 00:26:28;;;;;;;9.93;7.32;;;7.20;99.90;;;;;;5091923;28;20120;-45
2021/10/07 00:29:04;;;;;;;10.30;8.90;;;7.20;99.90;;;;;;5110289;28;20052;-45
2021/10/07 00:31:34;;;;;;;13.07;9.82;;;7.20;99.90;;;;;;5109264;28;20404;-45
2021/10/07 00:39:04;;;;;;;9.90;8.05;;;7.20;99.90;;;;;;5109510;28;20043;-45
2021/10/07 00:42:00;;;;;;;10.05;7.70;;;7.20;99.90;;;;;;5108784;28;20082;-46
2021/10/07 00:44:39;;;;;;;10.40;8.82;;;7.20;99.90;;;;;;5099567;28;20067;-45
2021/10/07 00:47:07;;;;;;;12.27;8.18;;;7.20;99.90;;;;;;5060396;28;20062;-44
2021/10/07 00:49:35;;;;;;;10.93;9.27;;;7.20;99.90;;;;;;5090649;28;20051;-46
2021/10/07 00:52:02;;;;;;;10.98;9.00;;;7.10;99.90;;;;;;5108848;28;20047;-45
2021/10/07 00:54:31;;;;;;;11.27;9.35;;;7.10;99.90;;;;;;5065211;28;20083;-45
2021/10/07 00:56:57;;;;;;;15.15;11.57;;;7.10;99.90;;;;;;5109877;28;20134;-45
2021/10/07 00:59:24;;;;;;;13.43;9.68;;;7.10;99.90;;;;;;5106293;28;20104;-47
2021/10/07 01:01:50;;;;;;;11.18;9.43;;;7.10;99.90;;;;;;5108813;28;20055;-44
2021/10/07 01:04:20;;;;;;;10.45;8.60;;;7.10;99.90;;;;;;5108179;28;20059;-46
2021/10/07 01:06:48;;;;;;;10.98;8.48;;;7.10;99.90;;;;;;5107606;28;20055;-46
2021/10/07 01:09:17;;;;;;;10.50;9.18;;;7.10;99.90;;;;;;5108406;28;20552;-44
2021/10/07 01:11:46;;;;;;;11.60;9.30;;;7.00;99.90;;;;;;5109345;28;20060;-45
2021/10/07 01:14:12;;;;;;;10.73;9.63;;;7.00;99.90;;;;;;5090273;28;20078;-45
2021/10/07 01:16:41;;;;;;;13.18;10.85;;;7.00;99.90;;;;;;5107418;28;20471;-46
2021/10/07 01:19:07;;;;;;;12.93;10.85;;;7.00;99.90;;;;;;5107393;28;20048;-46
2021/10/07 01:21:33;;;;;;;10.55;8.85;;;7.00;99.90;;;;;;5090045;28;20800;-45
2021/10/07 01:24:00;;;;;;;13.43;10.63;;;6.90;99.90;;;;;;5109380;28;20097;-46
2021/10/07 01:26:26;;;;;;;13.40;9.50;;;6.90;99.90;;;;;;5090746;28;20070;-46
2021/10/07 01:28:52;;;;;;;12.23;9.82;;;6.90;99.90;;;;;;5108196;28;20043;-44
2021/10/07 01:31:19;;;;;;;12.18;10.68;;;7.00;99.90;;;;;;5107784;28;20058;-46
2021/10/07 01:33:46;;;;;;;14.35;10.90;;;6.90;99.90;;;;;;5073298;28;20044;-44
2021/10/07 01:36:15;;;;;;;11.60;10.18;;;6.90;99.90;;;;;;5109061;28;20110;-45
2021/10/07 01:38:41;;;;;;;11.95;9.90;;;6.90;99.90;;;;;;5107517;28;20411;-45
2021/10/07 01:41:08;;;;;;;12.73;9.23;;;6.80;99.90;;;;;;5109222;28;20130;-46
2021/10/07 01:43:35;;;;;;;12.90;9.48;;;6.90;99.90;;;;;;5107922;28;20039;-46
2021/10/07 01:46:05;;;;;;;11.07;8.57;;;6.90;99.90;;;;;;5089927;28;20056;-46
2021/10/07 01:48:31;;;;;;;11.30;8.82;;;6.80;99.90;;;;;;5107839;28;20047;-47
2021/10/07 01:51:00;;;;;;;9.30;7.45;;;6.80;99.90;;;;;;5107877;28;20184;-47
2021/10/07 01:53:30;;;;;;;9.95;7.63;;;6.80;99.90;;;;;;5107614;28;20103;-46
2021/10/07 01:55:56;;;;;;;11.43;8.23;;;6.80;99.90;;;;;;5107749;28;20085;-46
2021/10/07 01:58:25;;;;;;;11.27;7.90;;;6.80;99.90;;;;;;5107034;28;20066;-45
2021/10/07 02:00:51;;;;;;;9.32;7.53;;;6.80;99.90;;;;;;5108758;28;20099;-47
2021/10/07 02:03:17;;;;;;;10.32;7.80;;;6.80;99.90;;;;;;5107499;28;20055;-46
2021/10/07 02:05:46;;;;;;;11.13;8.63;;;6.80;99.90;;;;;;5105986;28;20431;-45
2021/10/07 02:08:12;;;;;;;11.65;9.80;;;6.80;99.90;;;;;;5090615;28;20052;-47
2021/10/07 02:10:39;;;;;;;14.23;10.50;;;6.80;99.90;;;;;;5107653;28;20108;-47
2021/10/07 02:13:05;;;;;;;13.30;10.95;;;6.90;99.90;;;;;;5115505;28;20063;-47
2021/10/07 02:15:31;;;;;;;12.82;10.70;;;7.00;99.90;;;;;;5113938;28;20078;-45
2021/10/07 02:17:57;;;;;;;14.07;11.25;;;7.00;99.90;;;;;;5096593;28;20063;-46
2021/10/07 02:20:24;;;;;;;15.07;11.13;;;7.10;99.90;;;;;;5111998;28;20108;-46
2021/10/07 02:22:50;;;;;;;12.90;10.80;;;7.10;99.90;;;;;;5116104;28;20062;-47
2021/10/07 02:25:16;;;;;;;14.25;11.63;;;7.20;99.90;;;;;;5115175;28;20051;-47
2021/10/07 02:27:43;;;;;;;16.50;11.63;;;7.20;99.90;;;;;;5113047;28;20064;-45
2021/10/07 02:30:14;;;;;;;30.55;11.15;;;7.30;99.90;;;;;;5114916;28;20085;-50
2021/10/07 02:32:40;;;;;;;105.45;17.02;;;7.30;99.90;;;;;;5095671;28;20043;-46
2021/10/07 02:35:07;;;;;;;74.18;13.18;;;7.30;99.90;;;;;;5115130;28;20510;-46
2021/10/07 02:37:34;;;;;;;105.22;16.33;;;7.30;99.90;;;;;;5096281;28;20048;-47
2021/10/07 02:40:00;;;;;;;47.55;12.52;;;7.30;99.90;;;;;;5114719;28;20048;-46
2021/10/07 02:42:26;;;;;;;152.23;17.40;;;7.30;99.90;;;;;;5096267;28;20100;-47
2021/10/07 02:44:52;;;;;;;101.65;14.20;;;7.30;99.90;;;;;;5115092;28;20492;-47
2021/10/07 02:47:21;;;;;;;70.05;13.35;;;7.30;99.90;;;;;;5114938;28;20196;-46
2021/10/07 02:49:48;;;;;;;65.95;11.73;;;7.30;99.90;;;;;;5114555;28;20051;-46
2021/10/07 02:52:14;;;;;;;152.82;17.02;;;7.40;99.90;;;;;;5095826;28;20047;-48
2021/10/07 02:54:43;;;;;;;41.38;12.23;;;7.40;99.90;;;;;;5114534;28;20586;-45
2021/10/07 02:57:10;;;;;;;45.88;12.40;;;7.40;99.90;;;;;;5114640;28;20512;-45
2021/10/07 02:59:36;;;;;;;133.95;18.95;;;7.40;99.90;;;;;;5114445;28;20052;-45
2021/10/07 03:02:02;;;;;;;91.85;15.40;;;7.40;99.90;;;;;;5095891;28;20055;-45
2021/10/07 03:04:28;;;;;;;168.52;22.92;;;7.40;99.90;;;;;;5114039;28;20060;-46
2021/10/07 03:06:57;;;;;;;137.63;19.13;;;7.50;99.90;;;;;;5114974;28;20094;-46
2021/10/07 03:09:24;;;;;;;80.32;16.42;;;7.50;99.90;;;;;;5107614;28;20058;-47
2021/10/07 03:11:51;;;;;;;83.00;16.55;;;7.60;99.90;;;;;;5113974;28;20552;-45
2021/10/07 03:14:17;;;;;;;120.25;18.25;;;7.60;99.90;;;;;;5113526;28;20438;-46
2021/10/07 03:16:43;;;;;;;137.18;22.25;;;7.70;99.90;;;;;;5114399;28;20039;-45
2021/10/07 03:19:09;;;;;;;75.50;16.35;;;7.70;99.90;;;;;;5114018;28;20183;-47
2021/10/07 03:21:39;;;;;;;68.53;16.48;;;7.80;99.90;;;;;;5113337;28;20134;-46
2021/10/07 03:24:05;;;;;;;63.15;16.08;;;7.80;99.90;;;;;;5107629;28;20051;-45
2021/10/07 03:26:31;;;;;;;74.07;16.08;;;7.80;99.90;;;;;;5110303;28;20055;-47
2021/10/07 03:29:01;;;;;;;79.47;18.20;;;7.80;99.90;;;;;;5110603;28;20048;-46
2021/10/07 03:31:27;;;;;;;132.02;22.33;;;7.90;99.90;;;;;;5111428;28;20058;-46
2021/10/07 03:33:56;;;;;;;113.63;21.30;;;7.90;99.90;;;;;;5109969;28;20043;-46
2021/10/07 03:36:22;;;;;;;206.52;28.67;;;7.90;99.90;;;;;;5107433;28;20075;-45
2021/10/07 03:38:48;;;;;;;219.23;29.45;;;7.90;99.90;;;;;;5110671;28;20499;-45
2021/10/07 03:41:14;;;;;;;271.73;31.38;;;7.90;99.90;;;;;;5110246;28;20120;-44
2021/10/07 03:43:41;;;;;;;339.05;38.22;;;8.00;99.90;;;;;;5109576;28;20051;-45
2021/10/07 03:46:08;;;;;;;225.95;28.15;;;8.00;99.90;;;;;;5108305;28;20167;-47
2021/10/07 03:48:34;;;;;;;165.82;25.23;;;8.00;99.90;;;;;;5091556;28;20423;-47
2021/10/07 03:51:02;;;;;;;138.40;21.48;;;8.10;99.90;;;;;;5110915;28;20055;-45
2021/10/07 03:53:29;;;;;;;223.15;27.90;;;8.10;99.90;;;;;;5110590;28;20052;-45
2021/10/07 03:55:58;;;;;;;123.95;20.48;;;8.10;99.90;;;;;;5109820;28;20062;-45
2021/10/07 03:58:24;;;;;;;254.32;28.70;;;8.10;99.90;;;;;;5110047;28;20055;-45
2021/10/07 04:00:50;;;;;;;125.13;20.30;;;8.10;99.90;;;;;;5104161;28;20047;-46
2021/10/07 04:03:19;;;;;;;118.38;20.38;;;8.10;99.90;;;;;;5075515;28;20677;-46
2021/10/07 04:05:47;;;;;;;244.25;27.48;;;8.20;99.90;;;;;;5110473;28;20419;-47
2021/10/07 04:08:16;;;;;;;113.85;20.08;;;8.20;99.90;;;;;;5089397;28;20063;-45
2021/10/07 04:10:43;;;;;;;172.98;23.50;;;8.20;99.90;;;;;;5110007;28;20055;-45
2021/10/07 04:13:09;;;;;;;137.38;21.65;;;8.20;99.90;;;;;;5108938;28;20384;-47
2021/10/07 04:15:35;;;;;;;230.50;26.92;;;8.20;99.90;;;;;;5108807;28;20056;-45
2021/10/07 04:18:04;;;;;;;367.17;36.00;;;8.20;99.90;;;;;;5090275;28;20454;-48
2021/10/07 04:20:33;;;;;;;301.95;30.35;;;8.20;99.90;;;;;;5107057;28;20055;-45
2021/10/07 04:23:02;;;;;;;324.25;32.30;;;8.20;99.90;;;;;;5108420;28;20725;-46
2021/10/07 04:25:33;;;;;;;259.92;30.52;;;8.20;99.90;;;;;;5108150;28;20576;-46
2021/10/07 04:28:02;;;;;;;108.35;17.92;;;8.20;99.90;;;;;;5109189;28;20116;-45
2021/10/07 04:30:29;;;;;;;118.05;19.45;;;8.20;99.90;;;;;;5106385;28;20056;-48
2021/10/07 04:32:57;;;;;;;142.45;20.45;;;8.20;99.90;;;;;;5109381;28;20566;-45
2021/10/07 04:35:23;;;;;;;116.90;19.08;;;8.30;99.90;;;;;;5108262;28;20123;-44
2021/10/07 04:37:52;;;;;;;91.50;17.92;;;8.20;99.90;;;;;;5109034;28;20051;-46
2021/10/07 04:40:18;;;;;;;163.02;23.42;;;8.30;99.90;;;;;;5108029;28;20048;-45
2021/10/07 04:42:48;;;;;;;188.88;25.50;;;8.20;99.90;;;;;;5108532;28;20051;-46
2021/10/07 04:45:14;;;;;;;149.38;25.15;;;8.20;99.90;;;;;;5108997;28;20047;-45
2021/10/07 04:47:43;;;;;;;191.13;27.23;;;8.20;99.90;;;;;;5107829;28;20167;-49
2021/10/07 04:50:12;;;;;;;118.13;20.83;;;8.20;99.90;;;;;;5108791;28;20056;-46
2021/10/07 04:52:38;;;;;;;177.60;26.33;;;8.20;99.90;;;;;;5104344;28;20056;-45
2021/10/07 04:55:06;;;;;;;72.60;17.85;;;8.20;99.90;;;;;;5108570;28;20135;-45
2021/10/07 04:57:36;;;;;;;144.40;22.25;;;8.10;99.90;;;;;;5107466;28;20047;-45
2021/10/07 05:00:09;;;;;;;113.80;21.17;;;8.10;99.90;;;;;;5108672;28;20109;-47
2021/10/07 05:02:39;;;;;;;64.50;16.90;;;8.10;99.90;;;;;;5090035;28;20753;-45
2021/10/07 05:05:07;;;;;;;130.27;21.90;;;8.10;99.90;;;;;;5106241;28;20191;-45
2021/10/07 05:07:34;;;;;;;60.55;16.20;;;8.10;99.90;;;;;;5090635;28;20069;-44
2021/10/07 05:10:02;;;;;;;107.60;20.30;;;8.10;99.90;;;;;;5108108;28;20086;-46
2021/10/07 05:12:28;;;;;;;112.63;20.13;;;8.20;99.90;;;;;;5102470;28;20135;-44
2021/10/07 05:14:54;;;;;;;75.57;17.80;;;8.20;99.90;;;;;;5089925;28;20055;-44
2021/10/07 05:17:21;;;;;;;66.47;17.48;;;8.20;99.90;;;;;;5108562;28;20126;-45
2021/10/07 05:19:47;;;;;;;115.60;19.88;;;8.20;99.90;;;;;;5108615;28;20047;-45
2021/10/07 05:22:15;;;;;;;148.27;22.88;;;8.20;99.90;;;;;;5101678;28;20083;-45
2021/10/07 05:24:45;;;;;;;125.15;19.88;;;8.30;99.90;;;;;;5089639;28;20043;-44
2021/10/07 05:27:18;;;;;;;183.40;24.73;;;8.30;99.90;;;;;;5103855;28;20763;-49
2021/10/07 05:29:44;;;;;;;128.43;19.08;;;8.30;99.90;;;;;;5101046;28;20392;-46
2021/10/07 05:32:13;;;;;;;120.45;21.10;;;8.40;99.90;;;;;;5103058;28;20507;-43
2021/10/07 05:34:44;;;;;;;120.05;20.45;;;8.40;99.90;;;;;;5083546;28;20066;-44
2021/10/07 05:37:15;;;;;;;147.98;23.17;;;8.50;99.90;;;;;;5104366;28;20138;-43
2021/10/07 05:39:46;;;;;;;139.93;20.67;;;8.50;99.90;;;;;;5105024;28;20523;-44
2021/10/07 05:42:14;;;;;;;156.25;23.70;;;8.40;99.90;;;;;;5103131;28;20186;-44
2021/10/07 05:44:43;;;;;;;78.45;17.92;;;8.40;99.90;;;;;;5106968;28;20047;-44
2021/10/07 05:47:12;;;;;;;68.75;14.55;;;8.50;99.90;;;;;;5104744;28;20048;-44
2021/10/07 05:49:41;;;;;;;88.38;18.95;;;8.50;99.90;;;;;;5104783;28;20047;-43
2021/10/07 05:52:15;;;;;;;42.58;15.48;;;8.60;99.90;;;;;;5104338;28;20083;-44
2021/10/07 05:54:47;;;;;;;95.37;16.13;;;8.60;99.90;;;;;;5105490;28;20052;-44
2021/10/07 05:57:15;;;;;;;79.05;15.45;;;8.60;99.90;;;;;;5101380;28;20314;-44
2021/10/07 05:59:44;;;;;;;129.30;16.83;;;8.60;99.90;;;;;;5105745;28;20075;-44
2021/10/07 06:02:13;;;;;;;105.82;14.68;;;8.70;99.90;;;;;;5106200;28;20618;-44
2021/10/07 06:04:41;;;;;;;205.00;23.52;;;8.80;99.90;;;;;;5104350;28;20499;-43
2021/10/07 06:07:11;;;;;;;151.27;19.90;;;8.70;99.90;;;;;;5103667;28;20083;-44
2021/10/07 06:09:42;;;;;;;104.75;15.70;;;8.70;99.90;;;;;;5107629;28;20078;-43
2021/10/07 06:12:11;;;;;;;123.93;18.25;;;8.80;99.90;;;;;;5084035;28;20052;-42
2021/10/07 06:14:38;;;;;;;127.32;13.98;;;8.80;99.90;;;;;;5105674;28;20839;-44
2021/10/07 06:17:10;;;;;;;142.63;16.55;;;8.80;99.90;;;;;;5100238;28;20473;-43
2021/10/07 06:19:41;;;;;;;170.65;18.63;;;8.90;99.90;;;;;;5096468;28;20511;-44
2021/10/07 06:22:09;;;;;;;100.60;14.35;;;8.80;99.90;;;;;;5103624;28;20528;-44
2021/10/07 06:24:38;;;;;;;146.68;18.52;;;8.80;99.90;;;;;;5093316;28;20054;-44
2021/10/07 06:27:06;;;;;;;86.35;13.40;;;8.80;99.90;;;;;;5104159;28;20055;-44
2021/10/07 06:29:35;;;;;;;116.22;14.05;;;8.80;99.90;;;;;;5106991;28;20051;-48
2021/10/07 06:32:05;;;;;;;125.82;17.63;;;8.90;99.90;;;;;;5106072;28;20120;-45
2021/10/07 06:34:35;;;;;;;84.78;15.00;;;8.90;99.90;;;;;;5105379;28;20519;-46
2021/10/07 06:37:04;;;;;;;105.40;16.35;;;8.90;99.90;;;;;;5107211;28;20058;-44
2021/10/07 06:39:33;;;;;;;136.77;18.98;;;8.90;99.90;;;;;;5106897;28;20048;-46
2021/10/07 06:42:04;;;;;;;87.53;15.00;;;8.90;99.90;;;;;;5106913;28;20135;-45
2021/10/07 06:44:33;;;;;;;147.95;18.55;;;9.00;99.90;;;;;;5100419;28;20055;-44
2021/10/07 06:47:02;;;;;;;65.35;14.63;;;9.00;99.90;;;;;;5101234;28;20048;-44
2021/10/07 06:49:33;;;;;;;155.57;18.23;;;9.00;99.90;;;;;;5107363;28;20494;-44
2021/10/07 06:52:05;;;;;;;77.03;14.63;;;9.00;99.90;;;;;;5106898;28;20055;-44
2021/10/07 06:54:33;;;;;;;134.07;17.50;;;9.10;99.90;;;;;;5104217;28;20047;-44
2021/10/07 06:57:02;;;;;;;79.50;13.88;;;9.20;99.90;;;;;;5104629;28;20055;-44
2021/10/07 06:59:33;;;;;;;144.07;18.02;;;9.30;99.90;;;;;;5111139;28;20130;-45
2021/10/07 07:01:59;;;;;;;161.50;16.42;;;9.30;99.90;;;;;;5109669;28;20059;-45
2021/10/07 07:04:27;;;;;;;92.03;11.85;;;9.30;99.90;;;;;;5110861;28;20062;-49
2021/10/07 07:06:54;;;;;;;124.13;13.18;;;9.40;99.90;;;;;;5109737;28;20399;-45
2021/10/07 07:09:20;;;;;;;189.40;17.67;;;9.30;99.90;;;;;;5103619;28;20051;-45
2021/10/07 07:11:47;;;;;;;206.25;16.52;;;9.20;99.90;;;;;;5108450;28;20091;-46
2021/10/07 07:14:13;;;;;;;163.75;13.82;;;9.10;99.90;;;;;;5101516;28;20133;-45
2021/10/07 07:16:39;;;;;;;217.68;16.27;;;9.10;99.90;;;;;;5110886;28;20044;-46
2021/10/07 07:19:05;;;;;;;177.23;14.55;;;9.00;99.90;;;;;;5111759;28;20044;-46
2021/10/07 07:21:33;;;;;;;160.50;15.93;;;9.10;99.90;;;;;;5111243;28;20423;-46
2021/10/07 07:24:03;;;;;;;100.32;12.30;;;9.10;99.90;;;;;;5104177;28;20066;-47
2021/10/07 07:26:30;;;;;;;149.73;15.88;;;9.20;99.90;;;;;;5109654;28;20058;-45
2021/10/07 07:28:57;;;;;;;134.82;12.35;;;9.20;99.90;;;;;;5092787;28;20511;-46
2021/10/07 07:31:25;;;;;;;128.23;13.02;;;9.20;99.90;;;;;;5091544;28;20056;-45
2021/10/07 07:33:52;;;;;;;104.63;10.85;;;9.30;99.90;;;;;;5106093;28;20047;-48
2021/10/07 07:36:23;;;;;;;188.18;14.43;;;9.30;99.90;;;;;;5093981;28;20408;-44
2021/10/07 07:38:49;;;;;;;145.02;12.48;;;9.40;99.90;;;;;;5102575;28;20061;-49
2021/10/07 07:41:16;;;;;;;145.93;11.75;;;9.30;99.90;;;;;;5109100;28;20286;-45
2021/10/07 07:43:43;;;;;;;177.48;13.75;;;9.30;99.90;;;;;;5105969;28;20499;-55
2021/10/07 07:46:10;;;;;;;156.98;13.25;;;9.20;99.90;;;;;;5109714;28;20648;-52
2021/10/07 07:48:37;;;;;;;155.00;14.27;;;9.30;99.90;;;;;;5108647;28;20172;-55
2021/10/07 07:51:03;;;;;;;107.55;10.15;;;9.40;99.90;;;;;;5099267;28;20115;-44
2021/10/07 07:53:29;;;;;;;92.70;9.88;;;9.40;99.90;;;;;;5108546;28;20442;-46
2021/10/07 07:55:56;;;;;;;120.25;12.00;;;9.50;99.90;;;;;;5111240;28;20083;-44
2021/10/07 07:58:22;;;;;;;100.13;9.88;;;9.50;99.90;;;;;;5108620;28;20503;-43
2021/10/07 08:00:49;;;;;;;128.52;11.80;;;9.50;99.90;;;;;;5108733;28;20172;-47
2021/10/07 08:03:15;;;;;;;126.00;10.52;;;9.60;99.90;;;;;;5108784;28;20055;-47
2021/10/07 08:05:43;;;;;;;68.93;9.60;;;9.60;99.90;;;;;;5110036;28;20055;-45
2021/10/07 08:08:09;;;;;;;90.10;11.43;;;9.70;99.90;;;;;;5110071;28;20496;-45
2021/10/07 08:10:36;;;;;;;104.60;11.80;;;9.80;99.90;;;;;;5109297;28;20070;-47
2021/10/07 08:13:03;;;;;;;128.10;14.07;;;9.80;99.90;;;;;;5110357;28;20055;-45
2021/10/07 08:15:29;;;;;;;50.50;9.77;;;9.90;99.90;;;;;;5110706;28;20117;-46
2021/10/07 08:17:55;;;;;;;189.45;16.77;;;9.90;99.90;;;;;;5109704;28;20074;-47
2021/10/07 08:20:24;;;;;;;91.32;12.00;;;10.00;99.90;;;;;;5110469;28;20060;-46
2021/10/07 08:22:50;;;;;;;97.65;12.68;;;10.00;99.90;;;;;;5110531;28;20151;-48
2021/10/07 08:25:18;;;;;;;147.27;14.98;;;10.10;99.90;;;;;;5110588;28;20523;-45
2021/10/07 08:27:46;;;;;;;104.53;12.35;;;10.20;99.90;;;;;;5099316;28;20136;-46
2021/10/07 08:30:15;;;;;;;78.78;13.55;;;10.20;99.90;;;;;;5075030;28;20461;-47
2021/10/07 08:32:42;;;;;;;89.45;12.65;;;10.40;99.90;;;;;;5090253;28;20059;-46
2021/10/07 08:35:09;;;;;;;89.50;12.93;;;10.30;99.90;;;;;;5102148;28;20052;-46
2021/10/07 08:37:40;;;;;;;69.70;11.77;;;10.40;99.90;;;;;;5085188;28;20055;-50
2021/10/07 08:40:10;;;;;;;90.60;12.98;;;10.50;99.90;;;;;;5109888;28;20055;-48
2021/10/07 08:42:40;;;;;;;62.40;12.20;;;10.30;99.90;;;;;;5106595;28;20094;-48
2021/10/07 08:45:07;;;;;;;73.35;13.77;;;10.40;99.90;;;;;;5106144;28;20067;-46
2021/10/07 08:47:40;;;;;;;87.30;12.30;;;10.40;99.90;;;;;;5108641;28;20495;-46
2021/10/07 08:50:08;;;;;;;121.72;14.63;;;10.50;99.90;;;;;;5090337;28;20063;-49
2021/10/07 08:52:34;;;;;;;137.75;17.45;;;10.40;99.90;;;;;;5107453;28;20108;-46
2021/10/07 08:55:06;;;;;;;39.40;13.10;;;10.50;99.90;;;;;;5101790;28;20093;-46
2021/10/07 08:57:33;;;;;;;61.97;13.65;;;10.50;99.90;;;;;;5107683;28;20055;-46
2021/10/07 08:59:59;;;;;;;102.15;16.75;;;10.60;99.90;;;;;;5108113;28;20403;-50
2021/10/07 09:02:27;;;;;;;118.47;17.35;;;10.70;99.90;;;;;;5106949;28;20058;-46
2021/10/07 09:04:56;;;;;;;50.58;15.15;;;10.60;99.90;;;;;;5109346;28;20058;-48
2021/10/07 09:07:25;;;;;;;80.95;16.48;;;10.70;99.90;;;;;;5107766;28;20063;-46
2021/10/07 09:09:57;;;;;;;64.35;15.60;;;10.60;99.90;;;;;;5109470;28;20051;-47
2021/10/07 09:12:26;;;;;;;33.20;14.18;;;10.60;99.90;;;;;;5096001;28;20134;-46
2021/10/07 09:14:55;;;;;;;50.15;14.18;;;10.70;99.90;;;;;;5104326;28;20060;-49
2021/10/07 09:17:21;;;;;;;33.83;13.57;;;10.90;99.90;;;;;;5108103;28;20050;-47
2021/10/07 09:19:49;;;;;;;47.47;13.35;;;10.90;99.90;;;;;;5108085;28;20122;-48
2021/10/07 09:22:28;;;;;;;38.67;13.35;;;11.00;99.90;;;;;;5108381;28;20085;-46
2021/10/07 09:24:59;;;;;;;58.30;13.37;;;11.00;99.90;;;;;;5101454;28;20552;-48
2021/10/07 09:27:33;;;;;;;53.78;16.50;;;11.00;99.90;;;;;;5089424;28;20052;-48
2021/10/07 09:30:09;;;;;;;49.40;13.38;;;11.00;99.90;;;;;;5106136;28;20054;-49
2021/10/07 09:32:45;;;;;;;83.72;14.52;;;11.00;99.90;;;;;;5106874;28;20051;-46
2021/10/07 09:35:13;;;;;;;59.83;14.00;;;11.00;99.90;;;;;;5105775;28;20066;-47
2021/10/07 09:37:40;;;;;;;32.72;13.35;;;11.10;99.90;;;;;;5108459;28;20071;-45
2021/10/07 09:40:11;;;;;;;45.47;16.63;;;11.10;99.90;;;;;;5108333;28;20820;-46
2021/10/07 09:42:57;;;;;;;57.10;13.43;;;11.20;99.90;;;;;;5091368;28;20173;-48
2021/10/07 09:45:29;;;;;;;24.88;11.98;;;11.30;99.90;;;;;;5103967;28;20055;-48
2021/10/07 09:48:00;;;;;;;29.35;14.27;;;11.30;99.90;;;;;;5105144;28;20065;-47
2021/10/07 09:50:34;;;;;;;42.03;13.95;;;11.40;99.90;;;;;;5108943;28;20058;-48
2021/10/07 09:53:12;;;;;;;71.35;14.25;;;11.40;99.90;;;;;;5108235;28;20047;-48
2021/10/07 09:55:44;;;;;;;28.35;13.75;;;11.40;99.90;;;;;;5102035;28;20091;-48
2021/10/07 09:58:12;;;;;;;26.08;13.93;;;11.40;99.90;;;;;;5104285;28;20048;-47
2021/10/07 10:00:41;;;;;;;28.55;15.88;;;11.30;99.90;;;;;;5101449;28;20129;-47
2021/10/07 10:03:10;;;;;;;35.90;15.73;;;11.40;99.90;;;;;;5108070;28;20044;-46
2021/10/07 10:05:38;;;;;;;36.03;14.15;;;11.50;99.90;;;;;;5107433;28;20184;-48
2021/10/07 10:08:10;;;;;;;35.83;13.80;;;11.50;99.90;;;;;;5105479;28;20058;-49
2021/10/07 10:10:37;;;;;;;;;;;11.50;99.90;;;;;;5105112;28;20063;-48
2021/10/07 10:13:05;;;;;;;19.95;13.27;;;11.40;99.90;;;;;;5100823;28;20352;-50
2021/10/07 10:15:33;;;;;;;61.00;15.70;;;11.60;99.90;;;;;;5096906;28;20055;-49
2021/10/07 10:18:06;;;;;;;27.98;14.45;;;11.50;99.90;;;;;;5102371;28;20059;-47
2021/10/07 10:20:37;;;;;;;28.63;15.20;;;11.50;99.90;;;;;;5106944;28;20137;-46
2021/10/07 10:23:10;;;;;;;22.95;14.20;;;11.50;99.90;;;;;;5103600;28;20052;-47
2021/10/07 10:25:55;;;;;;;23.10;15.10;;;11.60;99.90;;;;;;5105163;28;20056;-45
2021/10/07 10:28:28;;;;;;;31.80;15.90;;;11.80;99.90;;;;;;5104629;28;20097;-47
2021/10/07 10:31:01;;;;;;;25.30;15.82;;;11.80;99.90;;;;;;5100830;28;20060;-44
2021/10/07 10:33:31;;;;;;;20.05;14.18;;;11.80;99.90;;;;;;5103536;28;20104;-47
2021/10/07 10:35:57;;;;;;;29.30;16.10;;;11.90;99.90;;;;;;5105120;28;20059;-46
2021/10/07 10:38:25;;;;;;;36.47;15.57;;;11.80;99.90;;;;;;5102868;28;20101;-45
2021/10/07 10:40:52;;;;;;;37.60;16.58;;;11.90;99.90;;;;;;5104125;28;20047;-47
2021/10/07 10:43:17;;;;;;;22.92;15.80;;;11.90;99.90;;;;;;5097988;28;20043;-50
2021/10/07 10:45:51;;;;;;;22.95;16.25;;;12.00;99.90;;;;;;5098411;28;20047;-46
2021/10/07 10:48:41;;;;;;;33.28;18.08;;;12.00;99.90;;;;;;5107014;28;20055;-47
2021/10/07 10:51:16;;;;;;;19.90;15.75;;;12.20;99.90;;;;;;5103952;28;20446;-46
2021/10/07 10:53:48;;;;;;;37.85;16.95;;;12.20;99.90;;;;;;5092074;28;20060;-48
2021/10/07 10:56:14;;;;;;;24.98;16.00;;;12.20;99.90;;;;;;5092290;28;20052;-46
2021/10/07 10:58:41;;;;;;;28.52;16.27;;;12.20;99.90;;;;;;5106734;28;20087;-46
2021/10/07 11:01:14;;;;;;;32.60;16.55;;;12.30;99.90;;;;;;5112850;28;20075;-45
2021/10/07 11:03:42;;;;;;;28.70;16.00;;;12.40;99.90;;;;;;5112870;28;20086;-46
2021/10/07 11:06:10;;;;;;;25.42;16.95;;;12.40;99.90;;;;;;5112856;28;20048;-48
2021/10/07 11:08:42;;;;;;;19.55;15.52;;;12.40;99.90;;;;;;5108510;28;20124;-49
2021/10/07 11:11:10;;;;;;;23.52;14.38;;;12.60;99.90;;;;;;5111404;28;20092;-49
2021/10/07 11:13:51;;;;;;;17.83;14.10;;;12.70;99.90;;;;;;5091919;28;20052;-48
2021/10/07 11:16:18;;;;;;;35.63;16.35;;;12.70;99.90;;;;;;5106925;28;20048;-51
2021/10/07 11:18:48;;;;;;;17.40;15.00;;;12.60;99.90;;;;;;5109213;28;20052;-48
2021/10/07 11:21:17;;;;;;;23.00;15.73;;;12.60;99.90;;;;;;5101004;28;20079;-47
2021/10/07 11:23:46;;;;;;;18.90;15.30;;;12.60;99.90;;;;;;5102301;28;20122;-48
2021/10/07 11:26:13;;;;;;;20.83;16.58;;;12.70;99.90;;;;;;5085468;28;20125;-46
2021/10/07 11:28:43;;;;;;;22.73;16.48;;;12.80;99.90;;;;;;5097956;28;20048;-46
2021/10/07 11:31:16;;;;;;;28.58;16.92;;;12.70;99.90;;;;;;5103579;28;20615;-46
2021/10/07 11:33:45;;;;;;;24.48;17.80;;;12.60;99.90;;;;;;5111650;27;20051;-48
2021/10/07 11:36:15;;;;;;;20.55;17.13;;;12.70;99.90;;;;;;5092612;28;20051;-48
2021/10/07 11:38:44;;;;;;;23.10;18.35;;;12.60;99.90;;;;;;5108381;27;20062;-47
2021/10/07 11:41:11;;;;;;;23.35;17.73;;;12.70;99.90;;;;;;5109798;27;20052;-46
2021/10/07 11:43:38;;;;;;;28.52;19.08;;;12.70;99.90;;;;;;5105934;27;20058;-46
2021/10/07 11:46:07;;;;;;;30.42;22.67;;;12.70;99.90;;;;;;5107223;27;20085;-46
2021/10/07 11:48:34;;;;;;;30.50;20.77;;;12.60;99.90;;;;;;5109709;27;20044;-48
2021/10/07 11:51:11;;;;;;;33.95;22.63;;;12.60;99.90;;;;;;5112990;27;20116;-47
2021/10/07 11:53:42;;;;;;;29.30;22.05;;;12.60;99.90;;;;;;5105180;27;20079;-48
2021/10/07 11:56:24;;;;;;;34.13;24.52;;;12.60;99.90;;;;;;5113697;27;20040;-49
2021/10/07 11:58:57;;;;;;;34.60;22.75;;;12.50;99.90;;;;;;5107389;27;20430;-49
2021/10/07 12:01:29;;;;;;;39.25;25.52;;;12.60;99.90;;;;;;5114507;27;20057;-51
2021/10/07 12:03:57;;;;;;;41.08;25.98;;;12.50;99.90;;;;;;5118495;27;20064;-46
2021/10/07 12:06:24;;;;;;;39.28;25.23;;;12.50;99.90;;;;;;5111706;27;20140;-50
2021/10/07 12:08:53;;;;;;;36.92;26.15;;;12.50;99.90;;;;;;5106193;28;20055;-47
2021/10/07 12:11:24;;;;;;;33.03;22.15;;;12.50;99.90;;;;;;5107022;27;20192;-47
2021/10/07 12:14:02;;;;;;;36.13;23.00;;;12.50;99.90;;;;;;5085869;28;20585;-48
2021/10/07 12:16:45;;;;;;;30.42;20.50;;;12.50;99.90;;;;;;5113121;27;20392;-47
2021/10/07 12:19:20;;;;;;;33.58;22.65;;;12.30;99.90;;;;;;5110876;28;20059;-48
2021/10/07 12:22:02;;;;;;;32.17;21.10;;;12.30;99.90;;;;;;5110323;28;20427;-49
2021/10/07 12:24:30;;;;;;;32.22;22.35;;;12.30;99.90;;;;;;5110319;28;20055;-47
2021/10/07 12:26:58;;;;;;;35.35;24.67;;;12.30;99.90;;;;;;5109130;28;20116;-47
2021/10/07 12:29:32;;;;;;;35.38;23.77;;;12.30;99.90;;;;;;5105562;28;20055;-46
2021/10/07 12:32:02;;;;;;;33.42;22.42;;;12.30;99.90;;;;;;5092422;28;20763;-46
2021/10/07 12:34:38;;;;;;;39.97;25.80;;;12.40;99.90;;;;;;5100646;28;20117;-47
2021/10/07 12:37:08;;;;;;;38.50;24.38;;;12.30;99.90;;;;;;5073643;28;20048;-47
2021/10/07 12:39:37;;;;;;;38.03;25.33;;;12.30;99.90;;;;;;5104457;28;20052;-47
2021/10/07 12:42:05;;;;;;;34.38;23.40;;;12.40;99.90;;;;;;5110629;28;20078;-51
2021/10/07 12:44:37;;;;;;;33.00;23.17;;;12.50;99.90;;;;;;5092312;28;20090;-50
2021/10/07 12:47:09;;;;;;;33.50;23.90;;;12.60;99.90;;;;;;5090293;28;20871;-49